Time;durP1;ratioP1;P1;durP2;ratioP2;P2;SDS_P1;SDS_P2;PMS_P1;PMS_P2;Temp;Humidity;BMP_temperature;BMP_pressure;BME280_temperature;BME280_humidity;BME280_pressure;Samples;Min_cycle;Max_cycle;Signal;HPM_P1;HPM_P2
2023/10/12 00:02:28;;;;;;;6.60;3.63;;;21.20;62.80;;;21.47;42.08;98683.19;5030760;27;124174;-83
2023/10/12 00:05:00;;;;;;;8.47;3.60;;;21.20;62.80;;;21.46;42.20;98681.56;5028445;27;123825;-82
2023/10/12 00:07:42;;;;;;;7.33;3.50;;;21.20;62.90;;;21.44;42.04;98679.16;5026818;27;119407;-82
2023/10/12 00:12:41;;;;;;;6.00;3.43;;;21.10;62.90;;;21.43;42.22;98671.88;5043725;27;124020;-82
2023/10/12 00:18:14;;;;;;;6.57;3.33;;;21.10;63.10;;;21.37;42.13;98663.00;5014076;27;119142;-83
2023/10/12 00:20:44;;;;;;;7.70;2.97;;;21.10;63.20;;;21.35;42.56;98670.97;5027014;27;119103;-83
2023/10/12 00:23:10;;;;;;;5.97;3.80;;;21.10;63.20;;;21.34;42.54;98666.56;5023905;27;124087;-83
2023/10/12 00:25:54;;;;;;;7.50;3.70;;;21.10;63.30;;;21.35;42.19;98664.56;5023631;28;123769;-83
2023/10/12 00:28:23;;;;;;;5.53;3.33;;;21.10;63.40;;;21.34;42.51;98662.97;5023365;27;119632;-83
2023/10/12 00:30:54;;;;;;;5.73;3.40;;;21.10;63.50;;;21.34;42.26;98652.50;5024356;27;119016;-82
2023/10/12 00:33:23;;;;;;;11.10;3.30;;;21.10;63.50;;;21.33;42.35;98656.53;5009140;28;123135;-82
2023/10/12 00:35:53;;;;;;;7.30;3.90;;;21.10;63.60;;;21.32;42.34;98654.09;5024462;28;125367;-83
2023/10/12 00:38:28;;;;;;;8.83;3.20;;;21.00;63.60;;;21.30;42.46;98660.09;5025965;27;118470;-83
2023/10/12 00:41:03;;;;;;;7.77;3.60;;;21.00;63.60;;;21.29;42.54;98660.50;5026460;27;118964;-83
2023/10/12 00:43:36;;;;;;;7.60;3.57;;;21.00;63.70;;;21.28;42.62;98648.44;5009925;28;124172;-81
2023/10/12 00:46:58;;;;;;;6.27;3.83;;;21.00;63.80;;;21.27;42.56;98655.25;5027341;27;123836;-82
2023/10/12 00:51:35;;;;;;;5.40;3.53;;;21.00;63.90;;;21.22;42.66;98644.38;5015422;27;120749;-82
2023/10/12 00:54:04;;;;;;;6.40;3.90;;;21.00;64.00;;;21.21;42.98;98642.75;5026493;27;123997;-83
2023/10/12 00:56:31;;;;;;;6.23;3.83;;;20.10;63.30;;;21.18;43.10;98649.97;5041657;27;123834;-82
2023/10/12 00:59:00;;;;;;;8.60;3.57;;;20.90;64.20;;;21.15;43.06;98645.13;5010937;28;119347;-82
2023/10/12 01:01:27;;;;;;;5.60;3.40;;;20.90;64.40;;;21.11;43.10;98646.28;5026507;27;118862;-83
2023/10/12 01:03:55;;;;;;;7.07;4.07;;;20.90;64.60;;;21.07;43.10;98631.41;5027623;27;124391;-82
2023/10/12 01:08:59;;;;;;;7.57;4.80;;;21.00;65.00;;;21.02;43.67;98629.75;5029493;28;119063;-82
2023/10/12 01:11:26;;;;;;;7.43;3.87;;;20.80;65.00;;;20.99;43.32;98629.72;5027121;27;119114;-83
2023/10/12 01:16:46;;;;;;;7.57;3.47;;;20.70;65.20;;;20.93;43.45;98620.84;5026977;27;124606;-83
2023/10/12 01:19:30;;;;;;;8.10;3.33;;;20.70;65.20;;;20.87;43.59;98634.41;5026618;27;119312;-82
2023/10/12 01:22:12;;;;;;;8.63;3.50;;;20.70;65.40;;;20.82;43.88;98628.31;5017746;27;119141;-83
2023/10/12 01:27:21;;;;;;;9.90;3.90;;;20.60;65.80;;;20.72;44.32;98638.28;5012155;27;124443;-83
2023/10/12 01:29:52;;;;;;;7.03;3.90;;;20.50;65.90;;;20.68;44.11;98641.00;5030188;27;119497;-82
2023/10/12 01:34:53;;;;;;;6.10;3.27;;;20.50;66.30;;;20.63;44.67;98634.94;5042221;27;124710;-83
2023/10/12 01:37:29;;;;;;;8.80;3.93;;;20.40;67.10;;;20.59;44.73;98637.72;5029611;27;123862;-83
2023/10/12 01:45:23;;;;;;;16.13;5.37;;;20.30;66.80;;;20.52;44.61;98626.38;5042897;27;124642;-82
2023/10/12 01:48:34;;;;;;;7.27;4.50;;;20.30;66.90;;;20.50;45.01;98631.56;5026870;27;123794;-82
2023/10/12 01:50:47;;;;;;;9.67;4.37;;;20.30;67.40;;;20.44;45.08;98627.47;5021670;28;119768;-84
2023/10/12 01:53:27;;;;;;;7.83;4.47;;;20.20;67.30;;;20.40;45.29;98621.03;5010216;27;117434;-83
2023/10/12 01:56:00;;;;;;;9.13;4.07;;;20.20;67.50;;;20.37;45.22;98622.59;5021463;27;124086;-83
2023/10/12 01:58:31;;;;;;;7.50;4.70;;;20.10;67.70;;;20.34;45.36;98619.72;5048980;27;123785;-82
2023/10/12 02:01:07;;;;;;;8.00;4.40;;;20.20;67.90;;;20.31;45.62;98624.13;5035507;27;119368;-84
2023/10/12 02:03:42;;;;;;;8.83;4.70;;;20.10;68.00;;;20.26;45.21;98614.06;5025414;27;119398;-83
2023/10/12 02:06:16;;;;;;;7.50;4.23;;;20.10;68.20;;;20.24;45.63;98624.03;5027019;27;124234;-83
2023/10/12 02:08:49;;;;;;;6.43;4.00;;;20.00;68.20;;;20.21;45.68;98614.38;5026804;27;124347;-83
2023/10/12 02:13:47;;;;;;;8.43;4.13;;;20.00;68.70;;;20.15;45.90;98612.28;5027452;27;119188;-84
2023/10/12 02:16:23;;;;;;;6.37;4.37;;;20.00;68.90;;;20.14;46.21;98614.28;5008467;28;123877;-83
2023/10/12 02:18:53;;;;;;;6.27;3.60;;;19.90;68.90;;;20.13;46.15;98617.50;5009027;27;123753;-83
2023/10/12 02:21:21;;;;;;;6.03;3.90;;;19.90;69.00;;;20.12;46.07;98622.25;5025146;27;119322;-84
2023/10/12 02:27:07;;;;;;;6.43;3.80;;;19.90;69.30;;;20.08;46.03;98622.22;5008492;28;124231;-83
2023/10/12 02:29:18;;;;;;;8.63;4.00;;;19.90;69.50;;;20.05;46.38;98625.78;5020909;27;124527;-83
2023/10/12 02:34:25;;;;;;;7.17;4.10;;;19.90;69.90;;;20.04;46.51;98627.00;5030276;27;120240;-83
2023/10/12 02:39:43;;;;;;;6.00;3.23;;;19.80;70.00;;;20.01;46.37;98624.13;5027001;27;125839;-83
2023/10/12 02:45:03;;;;;;;7.60;4.10;;;19.70;70.20;;;19.95;46.40;98618.03;5026569;27;119343;-82
2023/10/12 02:47:31;;;;;;;6.40;3.80;;;19.70;70.30;;;19.95;46.50;98611.63;5024322;27;124268;-82
2023/10/12 02:50:27;;;;;;;8.50;3.93;;;19.70;70.50;;;19.93;46.82;98614.81;5007615;28;123621;-83
2023/10/12 02:52:52;;;;;;;7.10;3.83;;;19.70;70.60;;;19.91;46.92;98611.59;5022217;27;119416;-82
2023/10/12 02:58:19;;;;;;;8.60;3.87;;;19.70;70.90;;;19.91;46.91;98619.16;5025218;28;124234;-83
2023/10/12 03:00:47;;;;;;;8.67;3.43;;;19.60;71.60;;;19.91;46.76;98619.16;5025861;27;124077;-83
2023/10/12 03:05:58;;;;;;;11.50;4.50;;;19.60;71.20;;;19.89;47.05;98621.56;5027821;27;119482;-83
2023/10/12 03:08:30;;;;;;;7.17;3.70;;;19.60;71.30;;;19.89;46.74;98615.97;5025478;27;123151;-83
2023/10/12 03:13:41;;;;;;;5.97;3.63;;;19.60;71.50;;;19.89;46.82;98616.75;5024589;27;119831;-82
2023/10/12 03:16:20;;;;;;;6.70;3.60;;;19.60;71.60;;;19.90;46.89;98612.75;5027876;27;117313;-83
2023/10/12 03:19:17;;;;;;;4.40;3.23;;;19.60;71.60;;;19.91;46.67;98614.41;5025419;27;124089;-83
2023/10/12 03:21:51;;;;;;;7.23;3.60;;;19.60;71.70;;;19.91;47.12;98613.56;5013589;28;124115;-81
2023/10/12 03:24:25;;;;;;;9.57;4.00;;;19.60;71.80;;;19.90;46.68;98614.75;5011472;27;120265;-83
2023/10/12 03:27:11;;;;;;;6.03;3.70;;;19.60;71.90;;;19.89;46.77;98608.34;5028787;27;119330;-83
2023/10/12 03:29:43;;;;;;;6.13;4.00;;;19.60;72.00;;;19.91;47.03;98616.38;5030684;27;125868;-83
2023/10/12 03:32:22;;;;;;;7.20;3.50;;;19.60;72.10;;;19.91;47.04;98617.19;5015444;28;123727;-82
2023/10/12 03:37:18;;;;;;;7.70;4.20;;;19.60;72.30;;;19.92;47.20;98615.19;5020320;27;119157;-82
2023/10/12 03:45:13;;;;;;;7.57;4.13;;;19.60;72.50;;;19.91;47.14;98614.41;5028255;27;119909;-82
2023/10/12 03:50:31;;;;;;;8.53;4.37;;;19.60;72.70;;;19.91;47.22;98616.38;5024846;28;126182;-83
2023/10/12 03:52:59;;;;;;;6.07;3.50;;;19.60;72.70;;;19.91;47.03;98610.75;5040119;27;123324;-83
2023/10/12 03:55:27;;;;;;;7.93;4.00;;;19.60;72.80;;;19.90;47.12;98612.75;5026142;27;119299;-83
2023/10/12 03:58:00;;;;;;;7.50;4.13;;;19.60;72.90;;;19.89;47.45;98608.34;5024787;27;118950;-82
2023/10/12 04:00:48;;;;;;;7.77;4.77;;;19.60;73.10;;;19.89;47.51;98607.56;5024475;27;123824;-83
2023/10/12 04:03:19;;;;;;;9.80;5.37;;;19.60;73.20;;;19.88;47.52;98600.31;5039132;27;124152;-82
2023/10/12 04:05:54;;;;;;;7.40;4.33;;;19.60;73.30;;;19.88;47.29;98605.91;5026815;27;119263;-83
2023/10/12 04:18:41;;;;;;;10.70;4.57;;;19.60;73.80;;;19.88;47.73;98620.78;5013426;28;120585;-83
2023/10/12 04:21:14;;;;;;;9.33;4.40;;;19.60;73.90;;;19.88;47.50;98609.56;5042360;27;124142;-83
2023/10/12 04:23:46;;;;;;;8.90;4.43;;;19.60;74.00;;;19.88;47.55;98612.34;5046394;27;121754;-83
2023/10/12 04:28:55;;;;;;;11.80;4.97;;;19.60;74.00;;;19.90;47.49;98625.97;5018242;27;119032;-82
2023/10/12 04:34:06;;;;;;;9.27;4.77;;;19.50;74.10;;;19.89;47.81;98633.59;5031336;27;123941;-82
2023/10/12 04:46:59;;;;;;;8.70;4.40;;;19.50;74.60;;;19.83;47.61;98630.31;5013090;28;120030;-82
2023/10/12 04:54:49;;;;;;;8.50;4.40;;;19.50;74.60;;;19.81;47.76;98637.47;5045144;27;124364;-82
2023/10/12 04:57:26;;;;;;;11.67;5.17;;;19.50;74.80;;;19.81;47.91;98634.69;5026911;27;119501;-82
2023/10/12 05:05:15;;;;;;;7.87;4.23;;;19.50;75.00;;;19.80;47.83;98636.69;5024231;27;124999;-82
2023/10/12 05:07:53;;;;;;;6.37;3.97;;;19.50;74.90;;;19.80;47.98;98633.88;5020378;28;121191;-83
2023/10/12 05:10:31;;;;;;;7.13;4.03;;;19.50;75.10;;;19.80;47.96;98642.28;4995650;28;120044;-82
2023/10/12 05:13:05;;;;;;;6.63;3.93;;;19.50;75.20;;;19.78;48.04;98639.03;5026941;27;124076;-82
2023/10/12 05:15:40;;;;;;;8.17;4.70;;;19.50;75.30;;;19.74;48.21;98640.97;5041175;27;122937;-81
2023/10/12 05:18:08;;;;;;;7.03;4.37;;;19.50;75.30;;;19.73;48.16;98646.97;5028721;27;118966;-82
2023/10/12 05:20:36;;;;;;;7.17;4.43;;;19.40;75.30;;;19.74;48.06;98635.38;5027172;27;119265;-82
2023/10/12 05:23:03;;;;;;;9.33;4.43;;;19.40;75.30;;;19.74;48.03;98637.38;5008827;28;124640;-82
2023/10/12 05:25:47;;;;;;;5.97;4.07;;;19.40;75.40;;;19.74;47.86;98638.16;5026437;27;123899;-83
2023/10/12 05:28:27;;;;;;;10.17;4.80;;;19.50;75.50;;;19.74;48.15;98640.16;5024807;27;119360;-82
2023/10/12 05:30:59;;;;;;;9.40;3.90;;;19.40;75.60;;;19.74;48.16;98645.78;5027330;27;118837;-80
2023/10/12 05:36:08;;;;;;;8.17;4.70;;;19.40;75.60;;;19.75;48.09;98647.41;5010010;28;124042;-81
2023/10/12 05:38:48;;;;;;;8.17;4.00;;;19.50;75.80;;;19.75;48.01;98648.22;5032212;27;119464;-83
2023/10/12 05:41:21;;;;;;;10.67;5.10;;;19.40;75.70;;;19.76;47.99;98649.81;5041879;27;117946;-83
2023/10/12 05:43:48;;;;;;;7.87;4.50;;;19.40;75.70;;;19.76;47.93;98647.00;5013532;27;124187;-82
2023/10/12 05:46:14;;;;;;;11.33;4.00;;;19.40;75.70;;;19.77;48.00;98648.66;5038849;27;123938;-82
2023/10/12 05:48:45;;;;;;;7.27;4.50;;;19.40;75.70;;;19.77;47.96;98654.25;5031382;27;119333;-84
2023/10/12 05:51:15;;;;;;;7.80;3.83;;;19.50;75.90;;;19.78;48.07;98652.25;5003162;27;119461;-83
2023/10/12 05:53:41;;;;;;;7.20;4.53;;;19.40;75.90;;;19.78;48.22;98655.88;5056111;27;123137;-84
2023/10/12 05:56:08;;;;;;;16.77;4.90;;;19.40;75.90;;;19.79;48.07;98651.06;5039233;27;122700;-83
2023/10/12 05:58:34;;;;;;;9.23;4.30;;;19.50;76.10;;;19.80;48.36;98659.09;5031399;27;120131;-85
2023/10/12 06:01:08;;;;;;;9.30;5.53;;;19.50;76.10;;;19.81;48.04;98662.72;5004687;27;120038;-83
2023/10/12 06:03:46;;;;;;;14.53;5.53;;;19.50;76.30;;;19.79;48.23;98665.88;5038018;27;124093;-81
2023/10/12 06:06:16;;;;;;;12.40;5.30;;;19.50;76.30;;;19.79;48.27;98663.06;5024534;27;123314;-83
2023/10/12 06:08:42;;;;;;;12.33;6.27;;;19.60;76.60;;;19.80;48.24;98661.91;5048324;27;119465;-83
2023/10/12 06:11:11;;;;;;;14.00;5.80;;;19.50;76.40;;;19.80;48.40;98656.31;5045572;27;119597;-83
2023/10/12 06:13:42;;;;;;;12.87;6.30;;;19.50;76.50;;;19.82;48.15;98656.72;5023065;27;124692;-83
2023/10/12 06:16:15;;;;;;;15.27;6.47;;;19.50;76.60;;;19.84;48.44;98657.16;5001704;28;123935;-85
2023/10/12 06:18:49;;;;;;;17.60;6.80;;;19.50;76.60;;;19.85;48.31;98658.78;5043883;27;119801;-86
2023/10/12 06:21:19;;;;;;;14.53;5.60;;;19.50;76.80;;;19.88;48.31;98665.63;5006466;27;119056;-86
2023/10/12 06:23:50;;;;;;;12.33;5.53;;;19.50;76.80;;;19.91;48.12;98664.88;5007786;28;123753;-85
2023/10/12 06:26:34;;;;;;;12.23;5.30;;;19.50;76.80;;;19.95;48.22;98667.72;4995977;27;123753;-85
2023/10/12 06:29:03;;;;;;;13.50;5.20;;;19.60;77.00;;;19.99;48.34;98663.78;5026079;27;119164;-86
2023/10/12 06:31:29;;;;;;;13.53;5.80;;;19.60;77.00;;;20.05;48.46;98658.66;5020645;27;119236;-85
2023/10/12 06:34:03;;;;;;;13.10;5.50;;;19.60;77.00;;;20.10;48.34;98665.94;5024450;27;123271;-86
2023/10/12 06:36:37;;;;;;;9.13;5.40;;;19.60;77.10;;;20.15;48.25;98668.38;5026083;27;121879;-89
2023/10/12 06:44:23;;;;;;;8.87;4.90;;;19.80;77.00;;;20.38;48.01;98679.53;5056016;27;124170;-85
2023/10/12 06:47:24;;;;;;;24.53;6.30;;;19.90;77.10;;;20.44;48.05;98676.00;5012873;27;123765;-87
2023/10/12 06:49:51;;;;;;;16.70;6.33;;;19.90;77.30;;;20.48;47.84;98690.88;5033869;27;119992;-86
2023/10/12 06:52:19;;;;;;;14.33;5.80;;;19.90;77.20;;;20.51;47.69;98687.31;5042999;27;119988;-90
2023/10/12 06:54:54;;;;;;;17.90;6.07;;;20.00;77.10;;;20.57;47.87;98693.44;5037146;27;123445;-88
2023/10/12 06:59:53;;;;;;;14.00;6.43;;;20.10;77.10;;;20.69;47.35;98706.44;5043688;27;118937;-88
2023/10/12 07:02:29;;;;;;;13.63;6.77;;;20.20;77.10;;;20.73;47.60;98708.06;5039135;27;119038;-89
2023/10/12 07:05:04;;;;;;;19.20;7.63;;;20.20;77.00;;;20.80;47.42;98712.16;5034036;27;124594;-86
2023/10/12 07:07:42;;;;;;;16.03;6.37;;;20.30;77.10;;;20.84;47.16;98701.78;5026398;27;124711;-86
2023/10/12 07:12:48;;;;;;;12.03;6.00;;;20.40;77.10;;;20.99;47.05;98725.22;5033446;27;119489;-83
2023/10/12 07:15:20;;;;;;;12.80;6.43;;;20.40;77.00;;;21.04;46.85;98716.47;5034566;27;124954;-83
2023/10/12 07:17:49;;;;;;;11.93;6.30;;;20.50;76.80;;;21.13;46.76;98726.16;5025717;27;123400;-83
2023/10/12 07:23:34;;;;;;;12.30;6.37;;;20.70;76.70;;;21.30;46.50;98729.56;5028821;27;119751;-84
2023/10/12 07:25:58;;;;;;;13.73;5.50;;;20.70;76.40;;;21.39;45.50;98727.28;5040351;27;124578;-86
2023/10/12 07:28:34;;;;;;;7.60;4.43;;;20.80;75.60;;;21.50;45.02;98721.75;5009863;28;123808;-86
2023/10/12 07:33:34;;;;;;;8.87;4.80;;;20.90;74.30;;;21.68;44.28;98733.13;5023984;27;119474;-84
2023/10/12 07:36:11;;;;;;;7.83;4.30;;;21.00;73.40;;;21.74;43.19;98737.22;5033801;27;123171;-85
2023/10/12 07:38:37;;;;;;;8.50;4.90;;;21.10;72.50;;;21.78;43.43;98732.44;5035059;27;125060;-85
2023/10/12 07:41:04;;;;;;;14.97;4.03;;;21.10;72.20;;;21.82;43.40;98724.84;5024632;27;120888;-84
2023/10/12 07:43:38;;;;;;;6.90;4.00;;;21.30;72.70;;;21.86;43.03;98717.22;5028811;27;119878;-84
2023/10/12 07:46:25;;;;;;;6.37;3.80;;;21.30;71.50;;;21.89;42.94;98716.44;5020815;27;124098;-84
2023/10/12 07:49:10;;;;;;;7.63;3.47;;;21.30;71.20;;;21.94;42.86;98723.72;5017968;27;123120;-86
2023/10/12 07:51:59;;;;;;;9.20;4.23;;;21.40;71.10;;;21.99;42.81;98731.78;5034423;27;118665;-84
2023/10/12 07:57:11;;;;;;;11.73;4.87;;;21.50;70.60;;;22.08;42.42;98725.81;5030307;27;124636;-86
2023/10/12 07:59:38;;;;;;;7.27;4.10;;;21.60;70.20;;;22.12;42.16;98729.47;5014447;27;123782;-85
2023/10/12 08:02:08;;;;;;;9.17;4.30;;;21.60;70.00;;;22.14;42.21;98732.69;5037868;27;119591;-86
2023/10/12 08:04:39;;;;;;;8.00;4.23;;;21.60;69.60;;;22.16;41.98;98730.28;5022166;27;120931;-85
2023/10/12 08:07:07;;;;;;;10.30;4.40;;;21.70;69.30;;;22.17;42.00;98723.47;5021805;27;124133;-85
2023/10/12 08:09:47;;;;;;;8.23;4.27;;;21.70;69.20;;;22.18;41.71;98723.09;5029247;27;124405;-84
2023/10/12 08:12:25;;;;;;;12.53;3.97;;;21.70;68.70;;;22.19;41.83;98719.13;5035180;27;119146;-85
2023/10/12 08:15:07;;;;;;;7.20;4.70;;;21.70;68.50;;;22.20;41.86;98720.72;5017771;27;119237;-87
2023/10/12 08:17:33;;;;;;;10.70;4.17;;;21.80;68.50;;;22.21;41.62;98724.31;5023198;27;124576;-86
2023/10/12 08:20:46;;;;;;;8.13;4.47;;;21.80;68.20;;;22.23;41.24;98721.94;5041148;27;123782;-86
2023/10/12 08:22:54;;;;;;;10.60;3.90;;;21.80;68.00;;;22.24;41.25;98726.34;5010354;27;119175;-85
2023/10/12 08:25:27;;;;;;;8.30;4.63;;;21.80;67.90;;;22.29;41.43;98728.81;5031886;27;119080;-86
2023/10/12 08:28:05;;;;;;;9.70;4.33;;;21.90;67.80;;;22.29;41.29;98723.16;5009252;28;123026;-86
2023/10/12 08:30:48;;;;;;;11.63;5.00;;;21.90;67.70;;;22.33;41.26;98723.22;5027934;27;124071;-86
2023/10/12 08:33:15;;;;;;;8.70;4.43;;;21.90;67.70;;;22.35;41.22;98718.78;5025128;27;120429;-86
2023/10/12 08:38:52;;;;;;;10.60;4.70;;;22.00;67.40;;;22.38;41.45;98726.47;5029073;27;124654;-84
2023/10/12 08:43:59;;;;;;;8.80;4.30;;;22.00;67.40;;;22.40;41.19;98717.59;5035061;27;119458;-86
2023/10/12 08:52:04;;;;;;;11.40;4.40;;;22.00;67.10;;;22.40;41.26;98718.41;5007094;28;124621;-86
2023/10/12 08:54:37;;;;;;;8.17;4.60;;;22.00;67.20;;;22.41;41.27;98714.41;5022728;27;119231;-85
2023/10/12 08:57:32;;;;;;;8.70;4.00;;;22.10;67.20;;;22.41;41.28;98717.22;5024634;27;118893;-86
2023/10/12 09:00:38;;;;;;;6.00;3.63;;;22.10;67.20;;;22.42;41.26;98716.00;5024104;27;123259;-84
2023/10/12 09:05:51;;;;;;;5.93;3.77;;;22.10;67.20;;;22.44;41.28;98722.06;5030672;27;119629;-83
2023/10/12 09:13:37;;;;;;;8.83;5.03;;;22.10;67.20;;;22.41;41.58;98720.03;5030204;27;125042;-85
2023/10/12 09:16:07;;;;;;;7.00;4.27;;;22.10;67.20;;;22.42;41.50;98716.00;5031174;27;118259;-87
2023/10/12 09:18:43;;;;;;;9.47;4.80;;;22.10;67.20;;;22.42;41.40;98721.63;5032255;27;119323;-84
2023/10/12 09:21:19;;;;;;;10.33;4.50;;;22.10;67.10;;;22.43;41.42;98717.63;5029357;27;124061;-86
2023/10/12 09:26:19;;;;;;;7.30;4.70;;;22.10;66.90;;;22.44;41.05;98730.50;5028227;27;120823;-83
2023/10/12 09:36:27;;;;;;;9.33;4.60;;;22.10;66.80;;;22.48;41.17;98733.34;5016812;27;120592;-85
2023/10/12 09:39:00;;;;;;;11.83;5.07;;;22.10;66.70;;;22.51;41.05;98729.72;5042660;27;119191;-84
2023/10/12 09:41:33;;;;;;;7.47;4.30;;;22.10;66.60;;;22.52;41.25;98722.09;5021914;27;123971;-86
2023/10/12 09:44:06;;;;;;;6.60;3.90;;;22.20;66.60;;;22.54;41.23;98725.31;5008191;28;123650;-85
2023/10/12 09:46:36;;;;;;;7.90;4.50;;;22.20;66.70;;;22.58;40.80;98723.34;5025382;27;119608;-84
2023/10/12 09:49:21;;;;;;;8.00;4.30;;;22.20;66.60;;;22.58;41.01;98718.50;5025642;27;119183;-86
2023/10/12 09:51:56;;;;;;;9.20;4.43;;;22.20;66.60;;;22.60;40.97;98727.38;5034586;27;123977;-84
2023/10/12 09:55:06;;;;;;;9.63;5.60;;;22.20;66.60;;;22.60;41.28;98721.75;5018926;28;123901;-82
2023/10/12 09:57:36;;;;;;;10.17;4.70;;;22.30;66.60;;;22.64;41.25;98716.91;5017360;27;119140;-85
2023/10/12 10:00:18;;;;;;;12.60;4.50;;;22.30;66.70;;;22.67;41.21;98715.31;5027392;27;118279;-82
2023/10/12 10:03:03;;;;;;;8.10;4.90;;;22.30;66.70;;;22.66;40.83;98730.63;5011094;28;123985;-82
2023/10/12 10:05:51;;;;;;;11.83;5.07;;;22.30;66.60;;;22.67;40.74;98732.22;5012006;28;122930;-83
2023/10/12 10:08:20;;;;;;;9.33;4.77;;;22.30;66.50;;;22.67;40.95;98726.59;5008360;27;118674;-85
2023/10/12 10:10:57;;;;;;;8.47;5.03;;;22.30;66.50;;;22.67;40.95;98730.19;5027985;27;119329;-84
2023/10/12 10:13:48;;;;;;;9.43;4.63;;;22.30;66.60;;;22.66;41.11;98722.16;5014796;27;124040;-84
2023/10/12 10:16:18;;;;;;;13.60;4.87;;;22.30;66.40;;;22.71;40.71;98721.78;5029100;27;125068;-84
2023/10/12 10:18:56;;;;;;;8.20;4.03;;;22.30;66.50;;;22.75;40.92;98722.59;5007789;27;118793;-86
2023/10/12 10:21:30;;;;;;;8.70;4.07;;;22.40;66.60;;;22.80;40.88;98729.88;5008754;28;120351;-85
2023/10/12 10:24:00;;;;;;;7.00;4.53;;;22.40;66.60;;;22.84;41.02;98731.50;5042899;27;124445;-82
2023/10/12 10:26:32;;;;;;;10.80;4.60;;;22.50;66.70;;;22.87;40.93;98739.16;5005945;28;123028;-86
2023/10/12 10:29:04;;;;;;;8.50;5.00;;;22.50;66.60;;;22.92;40.77;98746.44;5025662;27;119436;-85
2023/10/12 10:31:43;;;;;;;8.13;4.60;;;22.50;66.60;;;22.96;40.65;98740.78;5039261;27;118987;-83
2023/10/12 10:34:23;;;;;;;11.00;5.30;;;22.50;66.50;;;22.98;40.65;98746.88;5026620;27;123576;-86
2023/10/12 10:36:53;;;;;;;7.83;4.10;;;22.60;66.60;;;23.01;40.78;98738.41;5024110;27;123765;-83
2023/10/12 10:41:46;;;;;;;12.47;4.90;;;22.60;66.60;;;23.08;40.70;98729.19;5028599;27;119479;-84
2023/10/12 10:44:21;;;;;;;13.57;4.17;;;22.70;66.60;;;23.12;40.79;98730.81;5023187;27;124499;-84
2023/10/12 10:46:57;;;;;;;9.23;5.37;;;22.70;66.60;;;23.16;40.76;98733.66;5044601;27;124262;-85
2023/10/12 10:49:33;;;;;;;7.80;4.90;;;22.70;66.60;;;23.19;40.80;98741.31;5054706;27;119414;-82
2023/10/12 10:52:13;;;;;;;8.37;4.63;;;22.80;66.60;;;23.23;40.83;98732.84;5023617;27;119197;-84
2023/10/12 10:54:59;;;;;;;6.53;4.37;;;22.80;66.60;;;23.24;40.78;98724.00;5036427;27;124525;-83
2023/10/12 10:57:37;;;;;;;8.13;5.20;;;22.80;66.60;;;23.26;40.87;98724.38;5015103;27;123102;-83
2023/10/12 11:00:15;;;;;;;8.50;4.43;;;22.80;66.60;;;23.30;40.85;98730.06;5037146;27;119429;-83
2023/10/12 11:02:47;;;;;;;8.57;4.23;;;22.90;66.70;;;23.31;40.52;98732.44;5041844;27;118416;-84
2023/10/12 11:05:21;;;;;;;12.43;5.23;;;22.90;66.70;;;23.35;40.84;98724.03;5028655;27;124162;-84
2023/10/12 11:07:50;;;;;;;11.70;5.27;;;23.00;66.90;;;23.34;41.08;98731.66;5022854;28;122918;-83
2023/10/12 11:10:31;;;;;;;8.10;5.47;;;23.00;67.10;;;23.35;41.15;98730.47;5018168;27;120101;-83
2023/10/12 11:13:04;;;;;;;8.20;4.90;;;23.00;66.90;;;23.35;41.13;98716.38;5021565;27;120241;-83
2023/10/12 11:15:30;;;;;;;8.80;4.87;;;23.00;67.10;;;23.37;41.22;98727.22;5002396;27;124229;-84
2023/10/12 11:17:57;;;;;;;10.43;4.90;;;23.00;67.10;;;23.38;41.03;98726.03;5016107;27;123453;-84
2023/10/12 11:20:27;;;;;;;13.53;4.90;;;23.00;67.20;;;23.41;41.02;98713.16;5042188;27;119641;-85
2023/10/12 11:22:57;;;;;;;8.77;4.83;;;23.00;67.20;;;23.44;41.14;98717.97;5028513;27;119376;-85
2023/10/12 11:25:26;;;;;;;12.93;5.40;;;23.00;67.50;;;23.46;41.13;98707.91;5055125;27;124269;-84
2023/10/12 11:27:53;;;;;;;6.80;3.90;;;23.10;67.30;;;23.49;41.08;98715.56;5029471;27;123884;-84
2023/10/12 11:30:34;;;;;;;10.50;4.43;;;23.10;67.30;;;23.51;41.06;98706.72;5026894;27;119651;-84
2023/10/12 11:33:09;;;;;;;14.37;4.67;;;23.10;67.30;;;23.54;41.20;98708.72;5007373;27;119300;-84
2023/10/12 11:35:43;;;;;;;9.30;4.37;;;23.20;67.30;;;23.56;41.20;98715.59;5028417;27;123460;-85
2023/10/12 11:38:21;;;;;;;7.90;4.13;;;23.20;67.40;;;23.58;41.05;98706.72;5003677;27;124159;-86
2023/10/12 11:40:58;;;;;;;8.70;5.27;;;23.20;67.30;;;23.59;41.19;98702.69;5022794;27;119555;-85
2023/10/12 11:43:53;;;;;;;7.07;4.57;;;23.20;67.30;;;23.62;40.99;98713.16;5000747;27;119133;-85
2023/10/12 11:46:23;;;;;;;7.00;4.50;;;23.30;67.40;;;23.68;41.01;98705.91;5023869;27;124211;-86
2023/10/12 11:49:05;;;;;;;8.00;4.80;;;23.30;67.40;;;23.72;41.01;98714.38;5012153;28;124322;-85
2023/10/12 11:51:33;;;;;;;10.47;4.60;;;23.40;67.40;;;23.78;41.11;98722.06;5032156;27;118025;-83
2023/10/12 11:54:05;;;;;;;10.53;5.77;;;23.40;67.50;;;23.87;41.09;98715.22;5052036;27;119358;-82
2023/10/12 11:56:33;;;;;;;6.73;4.10;;;23.50;67.40;;;23.95;40.81;98723.25;5011966;28;125351;-84
2023/10/12 11:58:59;;;;;;;9.53;4.67;;;23.50;67.30;;;24.02;40.67;98714.78;5022932;27;123888;-84
2023/10/12 12:01:27;;;;;;;6.20;4.10;;;23.60;67.30;;;24.06;40.96;98723.25;5004079;27;119810;-84
2023/10/12 12:03:54;;;;;;;9.73;4.83;;;23.60;67.40;;;24.09;40.68;98727.28;5022483;27;120473;-84
2023/10/12 12:06:24;;;;;;;7.97;4.57;;;23.70;67.30;;;24.12;40.93;98721.63;5019203;27;124049;-85
2023/10/12 12:08:56;;;;;;;11.83;4.47;;;23.70;67.30;;;24.12;40.96;98727.25;5010772;28;122826;-83
2023/10/12 12:11:31;;;;;;;15.50;4.80;;;23.70;67.30;;;24.13;40.88;98726.06;5026905;27;119954;-83
2023/10/12 12:14:06;;;;;;;8.40;4.63;;;23.70;67.40;;;24.11;41.34;98731.31;5010218;28;119121;-83
2023/10/12 12:16:34;;;;;;;8.33;4.27;;;23.70;67.70;;;24.12;41.13;98727.25;5025601;27;124142;-84
2023/10/12 12:19:01;;;;;;;8.93;5.00;;;23.80;67.80;;;24.10;41.36;98721.25;5002484;27;123953;-84
2023/10/12 12:21:34;;;;;;;14.33;4.97;;;23.80;68.00;;;24.08;41.56;98718.00;5011773;27;122197;-83
2023/10/12 12:24:22;;;;;;;9.20;4.20;;;23.70;68.00;;;24.09;41.59;98721.63;5011239;28;118506;-83
2023/10/12 12:26:51;;;;;;;14.10;5.37;;;23.80;68.10;;;24.06;41.75;98722.44;5050463;27;125145;-84
2023/10/12 12:29:26;;;;;;;8.73;5.27;;;23.70;68.20;;;24.05;41.62;98732.13;5014376;27;123941;-84
2023/10/12 12:31:54;;;;;;;11.43;5.30;;;23.70;68.30;;;24.02;42.09;98726.09;5051572;27;119675;-83
2023/10/12 12:34:41;;;;;;;9.93;5.57;;;23.70;68.50;;;24.01;41.92;98720.81;5041263;27;119380;-83
2023/10/12 12:37:10;;;;;;;19.80;5.00;;;23.70;68.60;;;23.97;42.18;98709.56;5034462;27;124396;-86
2023/10/12 12:39:37;;;;;;;12.63;4.73;;;23.70;68.80;;;23.95;42.26;98714.00;5033207;27;123914;-84
2023/10/12 12:42:11;;;;;;;11.70;4.63;;;23.70;68.90;;;23.92;41.94;98703.50;5036547;27;119395;-83
2023/10/12 12:44:39;;;;;;;7.20;4.13;;;23.70;68.80;;;23.94;42.06;98701.09;5042769;27;118191;-86
2023/10/12 12:47:09;;;;;;;8.70;4.53;;;23.70;68.80;;;23.95;42.23;98691.41;5038020;27;123620;-85
2023/10/12 12:49:38;;;;;;;14.23;4.80;;;23.70;68.90;;;23.98;42.24;98690.59;5041283;27;124031;-86
2023/10/12 12:52:05;;;;;;;8.20;4.57;;;23.70;68.90;;;23.98;42.40;98693.41;5027317;27;120356;-86
2023/10/12 12:54:35;;;;;;;8.33;4.70;;;23.70;69.00;;;24.00;42.14;98693.81;5032725;27;119610;-84
2023/10/12 12:57:04;;;;;;;9.23;5.03;;;23.70;69.10;;;24.02;42.31;98697.06;5030198;27;123983;-85
2023/10/12 12:59:31;;;;;;;9.70;4.60;;;23.70;69.10;;;24.03;42.15;98695.84;5031649;27;124321;-83
2023/10/12 13:01:57;;;;;;;12.37;4.80;;;23.70;69.10;;;24.03;42.29;98687.38;5001058;27;119848;-84
2023/10/12 13:04:26;;;;;;;8.97;4.97;;;23.70;69.00;;;24.05;42.04;98696.25;5021068;28;117238;-84